Time;durP1;ratioP1;P1;durP2;ratioP2;P2;SDS_P1;SDS_P2;PMS_P1;PMS_P2;Temp;Humidity;BMP_temperature;BMP_pressure;BME280_temperature;BME280_humidity;BME280_pressure;Samples;Min_cycle;Max_cycle;Signal;HPM_P1;HPM_P2
2023/11/16 00:04:19;;;;;;;13.40;9.73;;;;;;;;;;10233134;28;20042;-63
2023/11/16 00:09:20;;;;;;;16.42;8.80;;;;;;;;;;10238118;29;20038;-65
2023/11/16 00:14:20;;;;;;;13.88;9.15;;;;;;;;;;10245680;29;20039;-62
2023/11/16 00:19:23;;;;;;;14.43;8.70;;;;;;;;;;10243270;29;20035;-62
2023/11/16 00:24:25;;;;;;;13.68;8.60;;;;;;;;;;10233754;28;20039;-64
2023/11/16 00:29:25;;;;;;;14.00;8.25;;;;;;;;;;10232192;28;20031;-64
2023/11/16 00:34:26;;;;;;;13.90;8.43;;;;;;;;;;10209133;29;20391;-61
2023/11/16 00:39:26;;;;;;;12.38;8.05;;;;;;;;;;10209315;29;20050;-63
2023/11/16 00:44:27;;;;;;;11.60;8.65;;;;;;;;;;10219787;28;20374;-62
2023/11/16 00:49:27;;;;;;;10.75;7.90;;;;;;;;;;10228977;29;20401;-63
2023/11/16 00:54:28;;;;;;;11.82;8.25;;;;;;;;;;10228854;29;20048;-63
2023/11/16 00:59:30;;;;;;;13.05;8.02;;;;;;;;;;10215747;29;20019;-60
2023/11/16 01:04:36;;;;;;;11.88;7.88;;;;;;;;;;10241074;29;20050;-65
2023/11/16 01:09:38;;;;;;;8.65;6.93;;;;;;;;;;10227896;28;20121;-64
2023/11/16 01:14:39;;;;;;;9.25;7.90;;;;;;;;;;10238560;28;20036;-65
2023/11/16 01:19:45;;;;;;;9.52;7.80;;;;;;;;;;10236927;29;20039;-64
2023/11/16 01:24:45;;;;;;;12.38;7.80;;;;;;;;;;10240559;29;20019;-63
2023/11/16 01:29:46;;;;;;;11.20;8.10;;;;;;;;;;10235230;28;20031;-65
2023/11/16 01:34:47;;;;;;;11.77;8.25;;;;;;;;;;10215348;29;20407;-64
2023/11/16 01:39:47;;;;;;;12.50;8.23;;;;;;;;;;10226430;28;20027;-65
2023/11/16 01:44:48;;;;;;;9.93;7.30;;;;;;;;;;10234768;29;20047;-65
2023/11/16 01:49:48;;;;;;;9.88;7.63;;;;;;;;;;10227234;28;20033;-64
2023/11/16 01:54:49;;;;;;;9.10;7.03;;;;;;;;;;10220948;29;20451;-64
2023/11/16 01:59:51;;;;;;;11.30;7.82;;;;;;;;;;10231152;28;20037;-63
2023/11/16 02:04:51;;;;;;;9.98;7.05;;;;;;;;;;10242446;28;20059;-63
2023/11/16 02:09:52;;;;;;;9.18;6.88;;;;;;;;;;10235034;29;20035;-63
2023/11/16 02:14:52;;;;;;;7.95;6.90;;;;;;;;;;10248642;29;20490;-63
2023/11/16 02:19:54;;;;;;;11.65;7.10;;;;;;;;;;10249767;28;20031;-63
2023/11/16 02:24:55;;;;;;;8.40;6.93;;;;;;;;;;10250663;28;20038;-64
2023/11/16 02:29:56;;;;;;;8.00;6.70;;;;;;;;;;10248841;29;20470;-63
2023/11/16 02:34:56;;;;;;;10.32;7.32;;;;;;;;;;10247336;28;20521;-61
2023/11/16 02:39:59;;;;;;;8.88;6.97;;;;;;;;;;10249122;29;20078;-62
2023/11/16 02:44:59;;;;;;;10.80;6.65;;;;;;;;;;10248049;29;20286;-62
2023/11/16 02:50:00;;;;;;;7.65;6.32;;;;;;;;;;10248339;28;20338;-62
2023/11/16 02:55:01;;;;;;;7.75;6.50;;;;;;;;;;10248014;29;20042;-61
2023/11/16 03:00:01;;;;;;;8.18;6.82;;;;;;;;;;10248195;29;20082;-62
2023/11/16 03:05:06;;;;;;;7.85;6.38;;;;;;;;;;10247980;28;20035;-66
2023/11/16 03:10:13;;;;;;;10.00;6.30;;;;;;;;;;10248033;28;20156;-64
2023/11/16 03:15:14;;;;;;;9.05;5.95;;;;;;;;;;10247409;28;20247;-61
2023/11/16 03:20:18;;;;;;;8.82;6.25;;;;;;;;;;10246771;28;20390;-62
2023/11/16 03:25:20;;;;;;;8.80;6.43;;;;;;;;;;10245944;29;20027;-61
2023/11/16 03:30:22;;;;;;;8.23;6.45;;;;;;;;;;10247184;28;20070;-61
2023/11/16 03:35:23;;;;;;;8.60;6.30;;;;;;;;;;10246783;28;20095;-61
2023/11/16 03:40:24;;;;;;;8.07;6.28;;;;;;;;;;10247112;28;20046;-61
2023/11/16 03:45:25;;;;;;;7.68;5.80;;;;;;;;;;10246364;29;20094;-63
2023/11/16 03:50:25;;;;;;;7.65;6.32;;;;;;;;;;10245898;28;20450;-66
2023/11/16 03:55:26;;;;;;;10.63;5.97;;;;;;;;;;10245937;28;20035;-63
2023/11/16 04:00:27;;;;;;;7.38;5.50;;;;;;;;;;10245637;28;20038;-62
2023/11/16 04:05:27;;;;;;;7.13;5.65;;;;;;;;;;10246316;28;20023;-63
2023/11/16 04:10:28;;;;;;;8.48;5.57;;;;;;;;;;10245338;28;20471;-64
2023/11/16 04:15:29;;;;;;;6.75;5.35;;;;;;;;;;10245144;28;20525;-63
2023/11/16 04:20:29;;;;;;;6.32;5.60;;;;;;;;;;10245336;28;20059;-63
2023/11/16 04:25:33;;;;;;;6.32;5.47;;;;;;;;;;10245695;29;20537;-62
2023/11/16 04:30:34;;;;;;;6.70;5.50;;;;;;;;;;10244869;28;20590;-61
2023/11/16 04:35:35;;;;;;;6.45;5.43;;;;;;;;;;10245036;29;20164;-65
2023/11/16 04:40:36;;;;;;;7.97;5.80;;;;;;;;;;10244737;28;20196;-64
2023/11/16 04:45:38;;;;;;;5.70;5.00;;;;;;;;;;10244200;28;20035;-63
2023/11/16 04:50:41;;;;;;;6.40;5.03;;;;;;;;;;10244037;28;20039;-63
2023/11/16 04:55:42;;;;;;;6.28;4.97;;;;;;;;;;10244285;28;20039;-63
2023/11/16 05:00:42;;;;;;;6.05;4.90;;;;;;;;;;10243715;28;20098;-63
2023/11/16 05:05:43;;;;;;;5.45;4.80;;;;;;;;;;10243874;28;20027;-63
2023/11/16 05:10:45;;;;;;;5.80;5.00;;;;;;;;;;10244542;29;20035;-62
2023/11/16 05:15:47;;;;;;;6.35;5.07;;;;;;;;;;10243554;28;20458;-63
2023/11/16 05:20:47;;;;;;;5.00;4.47;;;;;;;;;;10243811;29;20498;-62
2023/11/16 05:25:48;;;;;;;5.95;4.68;;;;;;;;;;10243868;28;20118;-62
2023/11/16 05:30:50;;;;;;;5.38;4.88;;;;;;;;;;10243361;28;20098;-63
2023/11/16 05:35:51;;;;;;;7.78;5.15;;;;;;;;;;10243454;28;20510;-63
2023/11/16 05:40:54;;;;;;;5.38;4.40;;;;;;;;;;10243183;29;20027;-63
2023/11/16 05:45:55;;;;;;;6.78;5.18;;;;;;;;;;10248739;28;20049;-63
2023/11/16 05:50:57;;;;;;;6.18;4.63;;;;;;;;;;10250117;28;20039;-62
2023/11/16 05:55:57;;;;;;;6.03;4.70;;;;;;;;;;10246220;29;20098;-62
2023/11/16 06:00:58;;;;;;;6.25;4.80;;;;;;;;;;10248692;28;20046;-61
2023/11/16 06:05:58;;;;;;;5.75;4.72;;;;;;;;;;10250465;28;20020;-62
2023/11/16 06:10:59;;;;;;;4.90;4.45;;;;;;;;;;10260845;28;20117;-61
2023/11/16 06:16:00;;;;;;;5.78;4.75;;;;;;;;;;10253006;28;20820;-62
2023/11/16 06:21:01;;;;;;;5.53;4.35;;;;;;;;;;10245894;28;20057;-62
2023/11/16 06:26:02;;;;;;;4.95;4.28;;;;;;;;;;10237076;28;20039;-61
2023/11/16 06:31:03;;;;;;;4.60;4.15;;;;;;;;;;10246298;28;20042;-61
2023/11/16 06:36:03;;;;;;;4.93;4.32;;;;;;;;;;10241223;28;20035;-61
2023/11/16 06:41:05;;;;;;;6.57;4.45;;;;;;;;;;10261472;28;20176;-61
2023/11/16 06:46:12;;;;;;;5.78;4.55;;;;;;;;;;10259204;28;20385;-60
2023/11/16 06:51:13;;;;;;;25.50;5.40;;;;;;;;;;10245045;28;20234;-60
2023/11/16 06:56:14;;;;;;;16.92;5.07;;;;;;;;;;10253598;28;20099;-60
2023/11/16 07:01:15;;;;;;;11.50;4.47;;;;;;;;;;10255234;28;20388;-60
2023/11/16 07:06:18;;;;;;;9.57;5.55;;;;;;;;;;10239632;28;20031;-60
2023/11/16 07:11:21;;;;;;;14.43;5.65;;;;;;;;;;10248869;28;20051;-62
2023/11/16 07:16:22;;;;;;;21.73;5.55;;;;;;;;;;10247801;28;20031;-61
2023/11/16 07:21:23;;;;;;;9.82;4.93;;;;;;;;;;10239730;28;20039;-60
2023/11/16 07:26:24;;;;;;;15.52;6.00;;;;;;;;;;10247796;28;20031;-60
2023/11/16 07:31:27;;;;;;;9.77;5.53;;;;;;;;;;10246924;28;20050;-60
2023/11/16 07:36:27;;;;;;;16.73;5.65;;;;;;;;;;10246948;28;20423;-60
2023/11/16 07:41:30;;;;;;;8.40;5.55;;;;;;;;;;10246685;29;20040;-60
2023/11/16 07:46:31;;;;;;;10.20;5.18;;;;;;;;;;10246596;28;20046;-60
2023/11/16 07:51:32;;;;;;;8.80;5.03;;;;;;;;;;10246460;29;20134;-60
2023/11/16 07:56:34;;;;;;;11.02;5.53;;;;;;;;;;10245987;29;20030;-60
2023/11/16 08:01:50;;;;;;;10.20;5.10;;;;;;;;;;10245926;28;20071;-60
2023/11/16 08:06:51;;;;;;;11.10;5.50;;;;;;;;;;10245683;28;20413;-60
2023/11/16 08:11:53;;;;;;;10.02;5.28;;;;;;;;;;10245674;28;20063;-60
2023/11/16 08:16:56;;;;;;;8.65;5.43;;;;;;;;;;10245564;28;20055;-60
2023/11/16 08:22:01;;;;;;;6.93;4.70;;;;;;;;;;10245179;28;20090;-60
2023/11/16 08:27:03;;;;;;;9.82;4.90;;;;;;;;;;10245303;28;20541;-60
2023/11/16 08:32:04;;;;;;;7.30;4.75;;;;;;;;;;10244433;28;20050;-60
2023/11/16 08:37:05;;;;;;;9.75;4.55;;;;;;;;;;10245014;28;20034;-63
2023/11/16 08:42:06;;;;;;;13.10;4.93;;;;;;;;;;10244826;29;20042;-62
2023/11/16 08:47:14;;;;;;;9.50;5.00;;;;;;;;;;10244544;28;20463;-63
2023/11/16 08:52:15;;;;;;;13.20;5.10;;;;;;;;;;10244302;28;20083;-60
2023/11/16 08:57:19;;;;;;;7.30;4.60;;;;;;;;;;10244536;28;20045;-60
2023/11/16 09:02:21;;;;;;;11.70;4.28;;;;;;;;;;10232446;29;20055;-62
2023/11/16 09:07:22;;;;;;;14.23;5.68;;;;;;;;;;10245314;28;20038;-63
2023/11/16 09:12:22;;;;;;;11.13;4.82;;;;;;;;;;10244279;28;20491;-62
2023/11/16 09:17:27;;;;;;;8.02;5.47;;;;;;;;;;10245943;28;20383;-62
2023/11/16 09:22:28;;;;;;;8.63;4.47;;;;;;;;;;10252163;29;20035;-62
2023/11/16 09:27:31;;;;;;;14.68;5.20;;;;;;;;;;10251922;28;20092;-60
2023/11/16 09:32:32;;;;;;;7.82;4.38;;;;;;;;;;10251021;29;20034;-61
2023/11/16 09:37:34;;;;;;;8.43;4.45;;;;;;;;;;10251131;28;20066;-60
2023/11/16 09:42:35;;;;;;;10.75;4.50;;;;;;;;;;10250652;29;20034;-61
2023/11/16 09:47:45;;;;;;;6.95;4.20;;;;;;;;;;10251817;28;20509;-60
2023/11/16 09:52:47;;;;;;;5.93;4.30;;;;;;;;;;10249853;28;20075;-60
2023/11/16 09:57:52;;;;;;;11.10;4.00;;;;;;;;;;10250292;28;20047;-59
2023/11/16 10:02:55;;;;;;;8.73;4.68;;;;;;;;;;10250130;28;20027;-60
2023/11/16 10:08:01;;;;;;;10.45;4.45;;;;;;;;;;10250557;28;20085;-60
2023/11/16 10:13:06;;;;;;;6.80;4.22;;;;;;;;;;10250469;28;20019;-60
2023/11/16 10:18:09;;;;;;;4.97;3.70;;;;;;;;;;10250160;28;20031;-60
2023/11/16 10:23:13;;;;;;;7.38;4.13;;;;;;;;;;10250543;28;20041;-61
2023/11/16 10:28:19;;;;;;;5.95;4.75;;;;;;;;;;10249618;28;20039;-60
2023/11/16 10:33:23;;;;;;;5.20;4.13;;;;;;;;;;10249731;28;20110;-60
2023/11/16 10:38:29;;;;;;;9.40;4.20;;;;;;;;;;10249940;29;20356;-60
2023/11/16 10:43:29;;;;;;;5.25;3.65;;;;;;;;;;10249403;29;20051;-60
2023/11/16 10:48:32;;;;;;;4.18;3.65;;;;;;;;;;10249608;28;20046;-62
2023/11/16 10:53:37;;;;;;;4.97;3.88;;;;;;;;;;10248586;28;20062;-62
2023/11/16 10:58:41;;;;;;;6.38;3.95;;;;;;;;;;10248951;28;20065;-62
2023/11/16 11:03:43;;;;;;;4.45;3.17;;;;;;;;;;10247241;28;20035;-62
2023/11/16 11:08:44;;;;;;;6.97;3.95;;;;;;;;;;10248522;28;20095;-60
2023/11/16 11:13:45;;;;;;;4.60;3.80;;;;;;;;;;10247605;28;20027;-60
2023/11/16 11:18:52;;;;;;;7.38;3.80;;;;;;;;;;10247940;28;20035;-60
2023/11/16 11:24:08;;;;;;;5.38;3.65;;;;;;;;;;10247223;28;20031;-60
2023/11/16 11:29:08;;;;;;;5.75;3.63;;;;;;;;;;10247041;28;20512;-60
2023/11/16 11:34:11;;;;;;;4.03;3.60;;;;;;;;;;10247498;28;20180;-60
2023/11/16 11:39:14;;;;;;;5.60;3.28;;;;;;;;;;10247181;28;20109;-60
2023/11/16 11:44:15;;;;;;;5.25;3.50;;;;;;;;;;10245747;28;20474;-59
2023/11/16 11:49:16;;;;;;;3.83;3.28;;;;;;;;;;10246706;28;20035;-60
2023/11/16 11:54:16;;;;;;;6.25;3.50;;;;;;;;;;10245606;28;20066;-60
2023/11/16 11:59:19;;;;;;;4.05;3.65;;;;;;;;;;10246441;28;20027;-60
2023/11/16 12:04:19;;;;;;;5.78;3.67;;;;;;;;;;10246092;28;20035;-60
2023/11/16 12:09:23;;;;;;;4.80;3.70;;;;;;;;;;10245972;28;20019;-60
2023/11/16 12:14:25;;;;;;;4.20;3.53;;;;;;;;;;10245825;28;20457;-61
2023/11/16 12:19:27;;;;;;;5.70;4.00;;;;;;;;;;10245760;28;20447;-61
2023/11/16 12:24:30;;;;;;;4.05;3.65;;;;;;;;;;10246874;28;20039;-61
2023/11/16 12:29:31;;;;;;;4.53;3.50;;;;;;;;;;10244907;28;20109;-61
2023/11/16 12:34:32;;;;;;;7.15;3.55;;;;;;;;;;10244958;28;20116;-62
2023/11/16 12:39:32;;;;;;;5.07;3.50;;;;;;;;;;10244763;28;20094;-61
2023/11/16 12:44:33;;;;;;;4.63;3.60;;;;;;;;;;10244766;28;20024;-61
2023/11/16 12:49:33;;;;;;;3.95;3.55;;;;;;;;;;10244851;29;20027;-62
2023/11/16 12:54:34;;;;;;;4.70;3.28;;;;;;;;;;10239932;28;20058;-61
2023/11/16 12:59:35;;;;;;;3.78;3.40;;;;;;;;;;10239783;28;20040;-62
2023/11/16 13:04:35;;;;;;;3.28;2.97;;;;;;;;;;10214501;29;20047;-61
2023/11/16 13:09:36;;;;;;;4.38;3.05;;;;;;;;;;10237386;29;20057;-61
2023/11/16 13:14:37;;;;;;;4.47;3.40;;;;;;;;;;10243819;29;20031;-61
2023/11/16 13:19:38;;;;;;;4.60;3.88;;;;;;;;;;10243656;29;20042;-62
2023/11/16 13:24:41;;;;;;;4.55;3.20;;;;;;;;;;10244340;28;20038;-62
2023/11/16 13:29:43;;;;;;;3.78;3.13;;;;;;;;;;10243861;29;20114;-61
2023/11/16 13:34:44;;;;;;;7.10;3.75;;;;;;;;;;10243926;28;20012;-61
2023/11/16 13:39:45;;;;;;;3.38;3.08;;;;;;;;;;10244379;28;20031;-61
2023/11/16 13:44:45;;;;;;;5.97;3.30;;;;;;;;;;10229823;28;20407;-62
2023/11/16 13:49:46;;;;;;;5.88;3.38;;;;;;;;;;10218389;28;20042;-62
2023/11/16 13:54:46;;;;;;;3.45;2.88;;;;;;;;;;10221241;28;20491;-61
2023/11/16 13:59:49;;;;;;;3.60;3.10;;;;;;;;;;10215152;29;20032;-60
2023/11/16 14:04:49;;;;;;;5.32;2.95;;;;;;;;;;10219738;28;20100;-61
2023/11/16 14:09:50;;;;;;;3.13;2.83;;;;;;;;;;10218117;29;20341;-61
2023/11/16 14:14:54;;;;;;;4.43;3.28;;;;;;;;;;10227001;29;20031;-61
2023/11/16 14:19:54;;;;;;;8.52;3.30;;;;;;;;;;10243096;29;20043;-61
2023/11/16 14:24:55;;;;;;;12.45;3.33;;;;;;;;;;10238332;29;20035;-61
2023/11/16 14:29:57;;;;;;;11.60;3.22;;;;;;;;;;10226058;29;20043;-59
2023/11/16 14:34:58;;;;;;;15.73;3.22;;;;;;;;;;10216132;28;20494;-60
2023/11/16 14:39:58;;;;;;;39.03;5.10;;;;;;;;;;10213493;28;20055;-60
2023/11/16 14:45:01;;;;;;;55.20;5.97;;;;;;;;;;10224928;29;20522;-59
2023/11/16 14:50:02;;;;;;;73.68;6.57;;;;;;;;;;10228287;29;20051;-59
2023/11/16 14:55:06;;;;;;;48.35;5.72;;;;;;;;;;10249509;28;20467;-63
2023/11/16 15:00:08;;;;;;;33.50;4.57;;;;;;;;;;10231473;28;20027;-59
2023/11/16 15:05:09;;;;;;;38.92;4.60;;;;;;;;;;10214622;29;20035;-64
2023/11/16 15:10:10;;;;;;;13.88;3.92;;;;;;;;;;10216241;29;20407;-60
2023/11/16 15:15:11;;;;;;;28.48;4.97;;;;;;;;;;10215096;28;20055;-63
2023/11/16 15:20:12;;;;;;;13.43;3.85;;;;;;;;;;10213607;29;20028;-60
2023/11/16 15:25:16;;;;;;;20.10;4.10;;;;;;;;;;10227308;29;20414;-64
2023/11/16 15:30:16;;;;;;;12.38;4.05;;;;;;;;;;10246199;28;20027;-65
2023/11/16 15:35:18;;;;;;;11.57;3.47;;;;;;;;;;10247113;28;20042;-59
2023/11/16 15:40:18;;;;;;;14.77;3.40;;;;;;;;;;10247149;28;20272;-59
2023/11/16 15:45:19;;;;;;;7.43;3.45;;;;;;;;;;10247138;29;20050;-64
2023/11/16 15:50:21;;;;;;;9.50;3.30;;;;;;;;;;10246329;28;20454;-61
2023/11/16 15:55:27;;;;;;;12.15;3.55;;;;;;;;;;10246395;28;20472;-64
2023/11/16 16:00:28;;;;;;;10.75;3.53;;;;;;;;;;10246570;28;20027;-64
2023/11/16 16:05:30;;;;;;;9.05;3.58;;;;;;;;;;10246105;28;20497;-65
2023/11/16 16:10:31;;;;;;;11.27;3.30;;;;;;;;;;10246080;29;20439;-65
2023/11/16 16:15:31;;;;;;;5.70;2.70;;;;;;;;;;10245999;29;20040;-62
2023/11/16 16:20:33;;;;;;;9.05;3.35;;;;;;;;;;10245835;29;20027;-59
2023/11/16 16:25:34;;;;;;;3.50;2.83;;;;;;;;;;10245647;29;20404;-58
2023/11/16 16:30:35;;;;;;;8.95;3.15;;;;;;;;;;10244480;28;20030;-60
2023/11/16 16:35:38;;;;;;;8.77;3.20;;;;;;;;;;10244873;28;20027;-59
2023/11/16 16:40:39;;;;;;;4.93;3.30;;;;;;;;;;10244163;28;20035;-64
2023/11/16 16:45:44;;;;;;;5.93;2.85;;;;;;;;;;10244741;28;20382;-64
2023/11/16 16:50:46;;;;;;;8.23;3.20;;;;;;;;;;10243881;29;20051;-63
2023/11/16 16:55:46;;;;;;;5.35;2.92;;;;;;;;;;10244316;28;20042;-64
2023/11/16 17:00:47;;;;;;;5.15;3.13;;;;;;;;;;10243106;28;20560;-64
2023/11/16 17:05:48;;;;;;;4.97;3.17;;;;;;;;;;10254137;28;20053;-65
2023/11/16 17:10:48;;;;;;;5.88;3.45;;;;;;;;;;10248256;28;20038;-62
2023/11/16 17:15:49;;;;;;;7.13;3.30;;;;;;;;;;10244531;28;20035;-64
2023/11/16 17:20:51;;;;;;;6.93;3.00;;;;;;;;;;10244766;28;20034;-66
2023/11/16 17:25:51;;;;;;;5.80;3.00;;;;;;;;;;10244277;28;20251;-59
2023/11/16 17:30:52;;;;;;;8.98;3.03;;;;;;;;;;10244105;28;20289;-58
2023/11/16 17:35:59;;;;;;;6.40;3.50;;;;;;;;;;10250914;28;20030;-59
2023/11/16 17:41:03;;;;;;;7.68;3.55;;;;;;;;;;10270815;28;20031;-58
2023/11/16 17:46:07;;;;;;;3.35;3.00;;;;;;;;;;10260025;28;20034;-58
2023/11/16 17:51:07;;;;;;;4.97;3.70;;;;;;;;;;10260392;28;20050;-58
2023/11/16 17:56:10;;;;;;;3.78;3.10;;;;;;;;;;10245441;28;20372;-59
2023/11/16 18:01:11;;;;;;;10.45;3.65;;;;;;;;;;10229819;29;20023;-59
2023/11/16 18:06:11;;;;;;;8.38;3.58;;;;;;;;;;10247385;29;20027;-59
2023/11/16 18:11:12;;;;;;;5.82;3.38;;;;;;;;;;10249235;29;20030;-60
2023/11/16 18:16:12;;;;;;;5.30;3.10;;;;;;;;;;10247328;29;20039;-59
2023/11/16 18:21:14;;;;;;;7.47;3.53;;;;;;;;;;10248219;28;20034;-58
2023/11/16 18:26:15;;;;;;;7.78;3.72;;;;;;;;;;10249528;28;20118;-58
2023/11/16 18:31:19;;;;;;;4.20;2.78;;;;;;;;;;10247432;28;20097;-59
2023/11/16 18:36:21;;;;;;;3.92;3.03;;;;;;;;;;10248877;28;20377;-60
2023/11/16 18:41:22;;;;;;;5.80;3.30;;;;;;;;;;10247248;28;20023;-59
2023/11/16 18:46:24;;;;;;;6.18;3.33;;;;;;;;;;10241733;28;20557;-60
2023/11/16 18:51:24;;;;;;;4.50;3.00;;;;;;;;;;10240485;28;20054;-61
2023/11/16 18:56:25;;;;;;;7.03;3.17;;;;;;;;;;10246796;28;20058;-59
2023/11/16 19:01:27;;;;;;;5.18;3.05;;;;;;;;;;10246730;28;20052;-60
2023/11/16 19:06:28;;;;;;;3.60;2.72;;;;;;;;;;10242786;28;20027;-60
2023/11/16 19:11:29;;;;;;;5.05;3.00;;;;;;;;;;10247234;28;20037;-61
2023/11/16 19:16:29;;;;;;;4.78;3.13;;;;;;;;;;10223056;29;20106;-59
2023/11/16 19:21:30;;;;;;;9.15;3.78;;;;;;;;;;10238061;29;20023;-59
2023/11/16 19:26:31;;;;;;;7.55;3.90;;;;;;;;;;10244314;28;20031;-59
2023/11/16 19:31:32;;;;;;;15.05;5.05;;;;;;;;;;10243814;28;20031;-59
2023/11/16 19:36:34;;;;;;;16.23;6.68;;;;;;;;;;10245284;28;20032;-59
2023/11/16 19:41:38;;;;;;;12.18;4.80;;;;;;;;;;10247154;29;20031;-59
2023/11/16 19:46:39;;;;;;;12.45;4.60;;;;;;;;;;10242962;28;20042;-59
2023/11/16 19:51:39;;;;;;;11.75;5.40;;;;;;;;;;10246067;29;20045;-59
2023/11/16 19:56:43;;;;;;;16.15;5.35;;;;;;;;;;10243630;28;20042;-59
2023/11/16 20:01:45;;;;;;;15.75;4.72;;;;;;;;;;10224941;28;20042;-59
2023/11/16 20:06:46;;;;;;;13.07;5.43;;;;;;;;;;10218773;28;20096;-59
2023/11/16 20:11:46;;;;;;;15.90;6.03;;;;;;;;;;10216255;29;20096;-59
2023/11/16 20:16:48;;;;;;;9.68;5.20;;;;;;;;;;10216110;29;20040;-59
2023/11/16 20:21:52;;;;;;;10.38;4.75;;;;;;;;;;10212749;29;20031;-59
2023/11/16 20:26:54;;;;;;;12.23;5.30;;;;;;;;;;10217739;29;20042;-59
2023/11/16 20:31:55;;;;;;;7.78;4.50;;;;;;;;;;10214851;29;20036;-59
2023/11/16 20:36:57;;;;;;;12.23;5.30;;;;;;;;;;10216252;28;20032;-59
2023/11/16 20:41:57;;;;;;;15.60;5.32;;;;;;;;;;10245174;28;20439;-59
2023/11/16 20:46:58;;;;;;;8.73;4.55;;;;;;;;;;10242903;29;20038;-60
2023/11/16 20:51:58;;;;;;;7.63;4.45;;;;;;;;;;10239830;29;20048;-58
2023/11/16 20:56:59;;;;;;;9.35;4.63;;;;;;;;;;10220965;29;20042;-63
2023/11/16 21:02:00;;;;;;;9.85;5.00;;;;;;;;;;10213639;29;20027;-64
2023/11/16 21:07:01;;;;;;;7.72;4.80;;;;;;;;;;10243595;28;20042;-64
2023/11/16 21:12:02;;;;;;;11.80;4.60;;;;;;;;;;10235706;28;20023;-64
2023/11/16 21:17:04;;;;;;;9.55;4.60;;;;;;;;;;10237481;28;20083;-64
2023/11/16 21:22:05;;;;;;;5.65;4.20;;;;;;;;;;10248605;29;20542;-64
2023/11/16 21:27:06;;;;;;;7.93;4.47;;;;;;;;;;10246774;28;20035;-63
2023/11/16 21:32:09;;;;;;;14.40;5.18;;;;;;;;;;10233996;29;20024;-63
2023/11/16 21:37:10;;;;;;;6.90;4.60;;;;;;;;;;10248813;29;20039;-64
2023/11/16 21:42:10;;;;;;;8.75;4.28;;;;;;;;;;10252057;28;20031;-64
2023/11/16 21:47:11;;;;;;;8.73;4.50;;;;;;;;;;10251529;28;20043;-64
2023/11/16 21:52:14;;;;;;;9.43;4.90;;;;;;;;;;10250704;29;20498;-65
2023/11/16 21:57:15;;;;;;;7.63;4.35;;;;;;;;;;10251240;28;20058;-63
2023/11/16 22:02:15;;;;;;;7.15;4.72;;;;;;;;;;10251265;28;20039;-63
2023/11/16 22:07:16;;;;;;;9.65;4.50;;;;;;;;;;10250596;28;20035;-64
2023/11/16 22:12:18;;;;;;;9.32;4.38;;;;;;;;;;10250216;29;20505;-63
2023/11/16 22:17:19;;;;;;;6.70;4.03;;;;;;;;;;10250512;28;20122;-63
2023/11/16 22:22:19;;;;;;;9.88;4.47;;;;;;;;;;10249850;28;20027;-63
2023/11/16 22:27:20;;;;;;;5.40;3.95;;;;;;;;;;10249525;28;20035;-59
2023/11/16 22:32:21;;;;;;;5.90;4.15;;;;;;;;;;10255877;28;20035;-59
2023/11/16 22:37:22;;;;;;;8.10;4.00;;;;;;;;;;10250286;28;20043;-59
2023/11/16 22:42:22;;;;;;;8.93;4.05;;;;;;;;;;10249215;28;20050;-68
2023/11/16 22:47:24;;;;;;;11.38;3.90;;;;;;;;;;10248933;28;20031;-68
2023/11/16 22:52:25;;;;;;;9.05;4.38;;;;;;;;;;10235421;29;20126;-66
2023/11/16 22:57:25;;;;;;;8.35;4.07;;;;;;;;;;10247526;29;20042;-63
2023/11/16 23:02:27;;;;;;;5.85;4.50;;;;;;;;;;10248937;29;20046;-69
2023/11/16 23:07:28;;;;;;;14.73;4.13;;;;;;;;;;10248807;29;20479;-67
2023/11/16 23:12:29;;;;;;;4.72;3.78;;;;;;;;;;10248316;28;20040;-69
2023/11/16 23:17:30;;;;;;;6.93;3.90;;;;;;;;;;10247484;28;20035;-63
2023/11/16 23:22:34;;;;;;;5.22;3.92;;;;;;;;;;10248110;28;20023;-60
2023/11/16 23:27:36;;;;;;;6.72;3.80;;;;;;;;;;10226374;28;20033;-60
2023/11/16 23:32:40;;;;;;;11.98;3.78;;;;;;;;;;10242121;29;20039;-59
2023/11/16 23:37:41;;;;;;;5.10;3.58;;;;;;;;;;10247304;28;20491;-60
2023/11/16 23:42:42;;;;;;;7.10;4.07;;;;;;;;;;10247108;28;20029;-60
2023/11/16 23:47:42;;;;;;;6.03;3.78;;;;;;;;;;10246780;29;20487;-59
2023/11/16 23:52:43;;;;;;;13.32;3.58;;;;;;;;;;10246198;29;20376;-60
2023/11/16 23:57:43;;;;;;;10.63;4.50;;;;;;;;;;10246373;28;20043;-60
